Time;durP1;ratioP1;P1;durP2;ratioP2;P2;SDS_P1;SDS_P2;PMS_P1;PMS_P2;Temp;Humidity;BMP_temperature;BMP_pressure;BME280_temperature;BME280_humidity;BME280_pressure;Samples;Min_cycle;Max_cycle;Signal;HPM_P1;HPM_P2
2023/04/05 00:00:27;;;;;;;7.05;5.03;;;;;;;0.86;64.15;102373.22;4979349;28;20035;-69
2023/04/05 00:03:00;;;;;;;9.25;4.63;;;;;;;0.85;64.49;102370.53;4985492;28;20102;-69
2023/04/05 00:05:29;;;;;;;8.00;4.85;;;;;;;0.81;64.57;102372.16;4984081;28;20526;-69
2023/04/05 00:07:58;;;;;;;7.50;4.53;;;;;;;0.75;64.74;102366.75;4972108;28;20043;-69
2023/04/05 00:10:26;;;;;;;5.85;4.45;;;;;;;0.72;64.84;102358.84;4979881;28;20062;-70
2023/04/05 00:12:54;;;;;;;6.13;4.70;;;;;;;0.68;64.70;102354.38;4984894;28;20043;-70
2023/04/05 00:15:22;;;;;;;7.32;5.10;;;;;;;0.65;64.98;102357.75;4985094;28;20103;-69
2023/04/05 00:17:49;;;;;;;6.68;5.22;;;;;;;0.60;64.65;102355.00;4981764;28;20047;-69
2023/04/05 00:20:16;;;;;;;8.50;5.50;;;;;;;0.57;65.21;102351.41;4981313;28;20127;-70
2023/04/05 00:22:43;;;;;;;9.57;5.60;;;;;;;0.52;65.35;102345.16;4963934;28;20039;-69
2023/04/05 00:25:11;;;;;;;8.88;5.10;;;;;;;0.47;65.53;102347.59;4969208;28;20101;-70
2023/04/05 00:27:42;;;;;;;8.27;5.22;;;;;;;0.43;65.41;102350.94;4986329;28;20463;-70
2023/04/05 00:30:09;;;;;;;7.75;5.15;;;;;;;0.37;65.35;102346.41;4966815;28;20122;-70
2023/04/05 00:32:36;;;;;;;8.43;5.30;;;;;;;0.33;65.61;102341.91;4965497;28;20042;-70
2023/04/05 00:35:04;;;;;;;8.68;5.43;;;;;;;0.29;65.95;102347.84;4972411;28;20110;-70
2023/04/05 00:37:31;;;;;;;7.25;5.20;;;;;;;0.26;66.10;102343.41;4983580;28;20043;-70
2023/04/05 00:39:58;;;;;;;8.93;5.15;;;;;;;0.24;66.26;102349.38;4963658;28;20046;-70
2023/04/05 00:42:25;;;;;;;8.27;5.22;;;;;;;0.23;66.67;102358.88;4972142;28;20440;-70
2023/04/05 00:44:53;;;;;;;9.00;5.28;;;;;;;0.24;66.93;102345.06;4981724;28;20515;-70
2023/04/05 00:47:20;;;;;;;9.05;5.10;;;;;;;0.27;66.52;102354.69;4981398;28;20047;-70
2023/04/05 00:49:48;;;;;;;8.88;5.13;;;;;;;0.29;67.16;102346.13;4964985;28;20098;-70
2023/04/05 00:52:18;;;;;;;7.55;5.38;;;;;;;0.35;67.19;102336.81;4981956;28;20045;-70
2023/04/05 00:54:45;;;;;;;7.88;4.55;;;;;;;0.38;67.22;102339.47;4982656;28;20042;-70
2023/04/05 00:57:13;;;;;;;7.85;4.55;;;;;;;0.39;67.47;102329.19;4983928;28;20126;-70
2023/04/05 00:59:41;;;;;;;6.93;4.82;;;;;;;0.38;67.55;102336.88;4984846;28;20043;-70
2023/04/05 01:02:30;;;;;;;8.30;4.95;;;;;;;0.37;67.43;102325.63;4984209;28;20035;-71
2023/04/05 01:05:08;;;;;;;8.65;5.07;;;;;;;0.37;67.55;102324.75;4991679;28;20047;-71
2023/04/05 01:08:10;;;;;;;7.53;4.90;;;;;;;0.37;67.47;102336.00;4984047;28;20070;-71
2023/04/05 01:10:47;;;;;;;8.80;5.15;;;;;;;0.35;67.64;102334.22;4979152;28;20047;-71
2023/04/05 01:13:17;;;;;;;7.03;4.63;;;;;;;0.36;67.44;102321.28;4982126;28;20038;-71
2023/04/05 01:15:44;;;;;;;8.40;4.55;;;;;;;0.35;67.93;102323.81;4980179;28;20046;-70
2023/04/05 01:18:13;;;;;;;8.93;4.57;;;;;;;0.37;67.80;102328.22;4968513;28;20038;-71
2023/04/05 01:20:53;;;;;;;9.15;4.72;;;;;;;0.38;67.99;102318.72;4969862;28;20154;-71
2023/04/05 01:23:52;;;;;;;5.50;4.55;;;;;;;0.37;68.08;102322.16;4983612;28;20039;-71
2023/04/05 01:26:44;;;;;;;6.78;4.53;;;;;;;0.37;68.11;102324.75;4982691;28;20061;-70
2023/04/05 01:29:34;;;;;;;6.93;4.68;;;;;;;0.36;68.14;102323.88;4984136;28;20145;-70
2023/04/05 01:32:36;;;;;;;7.78;4.68;;;;;;;0.34;68.15;102316.88;4961701;28;20039;-70
2023/04/05 01:35:21;;;;;;;6.22;4.07;;;;;;;0.33;68.17;102315.09;4966465;28;20050;-70
2023/04/05 01:37:58;;;;;;;7.82;4.68;;;;;;;0.33;68.20;102308.19;4982007;28;20039;-70
2023/04/05 01:40:26;;;;;;;6.38;4.57;;;;;;;0.28;67.81;102312.34;4979660;28;20034;-70
2023/04/05 01:42:53;;;;;;;9.45;4.95;;;;;;;0.22;68.12;102306.91;4977544;28;21043;-71
2023/04/05 01:45:20;;;;;;;8.23;4.40;;;;;;;0.18;68.18;102311.13;4979765;28;20131;-70
2023/04/05 01:47:48;;;;;;;7.95;4.80;;;;;;;0.15;67.89;102321.41;4981719;28;20071;-70
2023/04/05 01:50:18;;;;;;;8.80;4.82;;;;;;;0.09;68.10;102316.88;4964924;28;20050;-71
2023/04/05 01:52:45;;;;;;;6.00;4.47;;;;;;;0.03;67.94;102310.56;4962471;28;20098;-71
2023/04/05 01:55:15;;;;;;;8.00;4.78;;;;;;;-0.02;68.38;102319.03;4962519;28;20053;-71
2023/04/05 01:57:42;;;;;;;6.53;4.50;;;;;;;-0.01;68.79;102306.97;4963883;28;20054;-71
2023/04/05 02:00:11;;;;;;;7.15;4.90;;;;;;;-0.01;68.82;102299.22;4965410;28;20047;-70
2023/04/05 02:02:40;;;;;;;7.32;4.75;;;;;;;-0.05;68.94;102305.97;4983443;28;20047;-70
2023/04/05 02:05:08;;;;;;;8.77;4.55;;;;;;;-0.11;68.60;102302.28;4964396;28;20073;-70
2023/04/05 02:07:35;;;;;;;6.45;4.55;;;;;;;-0.17;68.63;102306.41;4965966;28;20046;-70
2023/04/05 02:10:04;;;;;;;8.57;4.70;;;;;;;-0.22;68.65;102302.75;4978712;28;20122;-70
2023/04/05 02:12:31;;;;;;;6.35;4.70;;;;;;;-0.28;68.73;102302.50;4980701;28;20061;-70
2023/04/05 02:14:58;;;;;;;7.30;4.80;;;;;;;-0.30;68.89;102309.34;4995367;28;20039;-70
2023/04/05 02:17:32;;;;;;;7.97;4.93;;;;;;;-0.32;69.03;102305.84;4967185;28;20035;-70
2023/04/05 02:20:05;;;;;;;8.80;5.05;;;;;;;-0.34;69.27;102302.28;4965537;28;20708;-70
2023/04/05 02:22:32;;;;;;;8.35;3.97;;;;;;;-0.35;69.07;102300.53;4955505;28;20051;-70
2023/04/05 02:25:00;;;;;;;8.63;4.57;;;;;;;-0.35;69.27;102298.78;4982730;28;20130;-70
2023/04/05 02:27:27;;;;;;;8.15;5.15;;;;;;;-0.36;69.37;102301.34;4985908;28;20220;-70
2023/04/05 02:29:56;;;;;;;8.35;5.03;;;;;;;-0.39;69.63;102296.94;4987990;28;20035;-70
2023/04/05 02:32:24;;;;;;;5.80;4.63;;;;;;;-0.40;69.85;102294.25;4987299;28;20045;-71
2023/04/05 02:34:51;;;;;;;8.10;5.30;;;;;;;-0.39;70.30;102293.44;4989746;28;20086;-71
2023/04/05 02:37:19;;;;;;;8.82;5.10;;;;;;;-0.37;70.48;102294.38;4978125;28;20042;-71
2023/04/05 02:39:46;;;;;;;8.20;5.38;;;;;;;-0.36;71.14;102296.16;4984801;28;20138;-71
2023/04/05 02:42:15;;;;;;;12.30;5.32;;;;;;;-0.39;70.76;102290.84;4968830;28;20837;-71
2023/04/05 02:44:44;;;;;;;9.30;5.43;;;;;;;-0.45;70.46;102291.50;4982472;28;20188;-71
2023/04/05 02:47:20;;;;;;;11.18;6.78;;;;;;;-0.49;70.46;102287.03;4970719;28;20550;-70
2023/04/05 02:49:52;;;;;;;10.77;6.70;;;;;;;-0.51;70.88;102288.69;4963240;28;20039;-70
2023/04/05 02:52:20;;;;;;;10.50;7.05;;;;;;;-0.55;70.62;102277.31;4979564;28;20095;-69
2023/04/05 02:54:48;;;;;;;8.70;6.70;;;;;;;-0.60;70.69;102278.84;4967117;28;20051;-70
2023/04/05 02:57:20;;;;;;;9.05;5.47;;;;;;;-0.63;70.68;102281.31;4987702;28;20043;-70
2023/04/05 02:59:56;;;;;;;8.80;6.18;;;;;;;-0.68;70.92;102280.25;4987153;28;20106;-70
2023/04/05 03:02:26;;;;;;;8.27;4.78;;;;;;;-0.67;71.24;102287.19;4968828;28;20038;-70
2023/04/05 03:04:53;;;;;;;8.50;5.85;;;;;;;-0.70;71.29;102277.59;4983836;28;20047;-70
2023/04/05 03:07:24;;;;;;;7.63;4.80;;;;;;;-0.71;70.94;102285.34;4968065;28;20504;-70
2023/04/05 03:09:52;;;;;;;7.53;5.63;;;;;;;-0.76;70.83;102271.31;4982512;28;20511;-69
2023/04/05 03:12:20;;;;;;;7.47;6.05;;;;;;;-0.80;70.94;102273.75;4971384;28;20441;-70
2023/04/05 03:14:47;;;;;;;9.13;4.97;;;;;;;-0.80;71.33;102275.47;4970826;28;20054;-70
2023/04/05 03:17:20;;;;;;;7.45;4.97;;;;;;;-0.84;71.22;102271.88;4964391;28;20031;-69
2023/04/05 03:19:59;;;;;;;11.32;5.03;;;;;;;-0.83;71.71;102270.16;4963857;28;20046;-70
2023/04/05 03:22:26;;;;;;;9.90;6.10;;;;;;;-0.81;72.06;102269.41;4980600;28;20118;-70
2023/04/05 03:24:56;;;;;;;10.68;6.68;;;;;;;-0.80;72.29;102273.75;4965455;28;20174;-71
2023/04/05 03:27:25;;;;;;;7.43;5.90;;;;;;;-0.82;72.01;102266.75;4951995;28;20050;-71
2023/04/05 03:30:18;;;;;;;8.32;5.20;;;;;;;-0.87;71.86;102263.13;4985149;28;20065;-71
2023/04/05 03:33:01;;;;;;;8.00;4.95;;;;;;;-0.94;71.42;102255.09;4978897;28;20787;-71
2023/04/05 03:35:44;;;;;;;10.75;6.60;;;;;;;-0.99;71.90;102255.72;4963024;28;20067;-70
2023/04/05 03:38:13;;;;;;;13.80;5.63;;;;;;;-1.01;71.92;102255.69;4971282;28;20055;-70
2023/04/05 03:41:06;;;;;;;9.35;5.32;;;;;;;-1.05;71.81;102261.53;4982619;28;20107;-70
2023/04/05 03:43:34;;;;;;;10.88;6.25;;;;;;;-1.07;72.06;102252.84;4965328;28;20515;-70
2023/04/05 03:46:02;;;;;;;9.30;5.47;;;;;;;-1.10;72.27;102255.31;4970248;28;20038;-71
2023/04/05 03:48:29;;;;;;;10.75;6.22;;;;;;;-1.13;72.30;102247.41;4979363;28;20483;-70
2023/04/05 03:50:56;;;;;;;9.73;5.68;;;;;;;-1.13;72.20;102242.22;4985478;28;20090;-70
2023/04/05 03:53:23;;;;;;;11.05;6.38;;;;;;;-1.15;72.45;102247.34;4966135;28;20105;-71
2023/04/05 03:55:54;;;;;;;8.63;5.55;;;;;;;-1.15;72.34;102244.78;4950352;28;20627;-70
2023/04/05 03:58:37;;;;;;;8.82;5.65;;;;;;;-1.15;72.30;102241.28;4965087;28;20047;-70
2023/04/05 04:01:05;;;;;;;10.88;6.10;;;;;;;-1.16;71.90;102240.41;4970626;28;20539;-71
2023/04/05 04:03:32;;;;;;;10.50;5.38;;;;;;;-1.16;72.55;102240.41;4981060;28;20043;-71
2023/04/05 04:06:00;;;;;;;10.82;7.25;;;;;;;-1.10;73.22;102239.78;4968911;28;20034;-71
2023/04/05 04:08:27;;;;;;;9.48;6.28;;;;;;;-1.05;73.39;102237.38;4967791;28;20043;-70
2023/04/05 04:10:57;;;;;;;11.10;5.38;;;;;;;-1.04;73.41;102242.59;4963821;28;20151;-70
2023/04/05 04:13:28;;;;;;;11.73;7.00;;;;;;;-1.04;73.26;102242.59;4970502;28;20034;-70
2023/04/05 04:16:07;;;;;;;11.35;5.85;;;;;;;-1.09;73.12;102238.97;4965958;28;20042;-69
2023/04/05 04:18:44;;;;;;;10.07;6.07;;;;;;;-1.13;73.27;102234.47;4967258;28;20073;-70
2023/04/05 04:21:31;;;;;;;10.35;5.78;;;;;;;-1.16;73.67;102242.09;4981399;28;20247;-70
2023/04/05 04:24:18;;;;;;;10.15;5.40;;;;;;;-1.20;73.70;102245.41;4982062;28;20712;-69
2023/04/05 04:26:46;;;;;;;9.38;6.88;;;;;;;-1.25;73.87;102234.88;4967300;28;20852;-68
2023/04/05 04:29:49;;;;;;;10.45;6.65;;;;;;;-1.27;73.94;102239.09;4957717;28;20090;-72
2023/04/05 04:32:53;;;;;;;9.30;6.88;;;;;;;-1.32;73.94;102233.72;4968230;28;20047;-72
2023/04/05 04:35:38;;;;;;;11.52;5.93;;;;;;;-1.37;74.18;102227.47;4985702;28;20550;-70
2023/04/05 04:38:08;;;;;;;10.32;6.00;;;;;;;-1.36;74.45;102230.94;4986228;28;20530;-71
2023/04/05 04:40:52;;;;;;;10.75;5.95;;;;;;;-1.35;74.73;102238.75;4982273;28;20988;-69
2023/04/05 04:43:45;;;;;;;9.38;5.18;;;;;;;-1.31;75.20;102232.00;4951086;28;20659;-69
2023/04/05 04:46:17;;;;;;;9.38;5.68;;;;;;;-1.02;79.55;102240.97;4991391;28;20039;-68
2023/04/05 04:49:04;;;;;;;12.98;6.85;;;;;;;-0.58;81.22;102233.16;4970339;28;20043;-68
2023/04/05 04:51:32;;;;;;;10.68;7.57;;;;;;;-0.48;79.09;102229.22;4994106;28;20031;-69
2023/04/05 04:53:59;;;;;;;12.43;8.10;;;;;;;-0.38;78.86;102236.50;4996016;28;20054;-67
2023/04/05 04:56:26;;;;;;;9.88;7.60;;;;;;;-0.37;78.13;102239.97;4992776;28;20082;-67
2023/04/05 04:58:56;;;;;;;12.13;7.75;;;;;;;-0.39;78.09;102237.34;4991165;28;20076;-68
2023/04/05 05:01:23;;;;;;;14.68;7.70;;;;;;;-0.26;78.52;102235.19;4967506;28;20454;-67
2023/04/05 05:03:51;;;;;;;12.63;6.93;;;;;;;-0.17;77.50;102235.53;4985323;28;20110;-67
2023/04/05 05:06:23;;;;;;;14.48;7.43;;;;;;;-0.30;76.29;102234.19;4969015;28;20752;-68
2023/04/05 05:08:50;;;;;;;12.82;7.25;;;;;;;-0.43;75.55;102240.63;4996858;28;20043;-67
2023/04/05 05:11:18;;;;;;;17.20;7.10;;;;;;;-0.55;75.42;102235.88;4986951;28;20608;-68
2023/04/05 05:13:45;;;;;;;19.58;8.30;;;;;;;-0.60;75.30;102244.28;4987323;28;20705;-68
2023/04/05 05:16:23;;;;;;;19.63;8.45;;;;;;;-0.61;75.80;102240.78;4954976;28;20475;-68
2023/04/05 05:18:50;;;;;;;14.90;7.97;;;;;;;-0.51;76.35;102237.72;4971691;28;20126;-68
2023/04/05 05:21:17;;;;;;;16.45;8.07;;;;;;;-0.13;75.79;102239.97;4972607;28;21061;-68
2023/04/05 05:23:51;;;;;;;14.18;7.78;;;;;;;0.64;73.82;102235.72;4981605;28;20118;-67
2023/04/05 05:26:18;;;;;;;20.52;8.40;;;;;;;0.55;73.00;102238.88;4984012;28;20038;-67
2023/04/05 05:28:47;;;;;;;16.23;8.10;;;;;;;0.31;72.96;102239.78;4968161;28;20047;-68
2023/04/05 05:31:16;;;;;;;14.25;7.15;;;;;;;0.10;73.04;102242.53;4971599;28;20542;-68
2023/04/05 05:33:48;;;;;;;13.73;7.97;;;;;;;-0.06;73.26;102239.41;4989243;28;20051;-68
2023/04/05 05:36:15;;;;;;;14.27;7.43;;;;;;;-0.20;73.72;102238.88;4978095;28;20141;-69
2023/04/05 05:38:42;;;;;;;14.30;7.85;;;;;;;-0.27;74.04;102236.03;4985387;28;20121;-69
2023/04/05 05:41:09;;;;;;;12.68;7.57;;;;;;;-0.33;74.22;102237.53;5000931;28;21139;-69
2023/04/05 05:43:36;;;;;;;12.32;6.93;;;;;;;-0.37;74.35;102227.00;4967338;28;20078;-69
2023/04/05 05:46:03;;;;;;;11.75;8.02;;;;;;;-0.38;74.51;102231.31;4969770;28;20042;-69
2023/04/05 05:48:32;;;;;;;20.20;7.13;;;;;;;-0.35;74.71;102230.56;4996010;28;20125;-69
2023/04/05 05:51:08;;;;;;;15.18;7.15;;;;;;;-0.30;74.74;102233.31;4987892;28;20049;-69
2023/04/05 05:53:36;;;;;;;13.32;7.03;;;;;;;-0.27;74.91;102236.03;4986749;28;20053;-69
2023/04/05 05:56:04;;;;;;;10.38;7.43;;;;;;;-0.23;74.85;102238.78;5006491;28;20521;-69
2023/04/05 05:58:31;;;;;;;11.48;7.63;;;;;;;-0.14;74.96;102235.63;4988670;28;20050;-69
2023/04/05 06:01:02;;;;;;;11.43;7.88;;;;;;;-0.09;74.58;102236.69;5004607;28;20034;-69
2023/04/05 06:03:29;;;;;;;12.23;7.75;;;;;;;0.02;74.59;102242.25;4989271;28;21169;-69
2023/04/05 06:05:58;;;;;;;12.02;7.35;;;;;;;0.10;74.57;102235.63;4991128;28;20039;-69
2023/04/05 06:08:29;;;;;;;11.23;7.78;;;;;;;0.21;74.37;102238.59;4972503;28;20534;-69
2023/04/05 06:10:56;;;;;;;11.50;7.53;;;;;;;0.34;74.25;102231.25;4990280;28;20039;-69
2023/04/05 06:13:23;;;;;;;12.43;8.02;;;;;;;0.46;73.93;102236.84;4971131;28;20050;-69
2023/04/05 06:15:50;;;;;;;15.05;8.20;;;;;;;0.57;73.80;102230.28;4969802;28;20046;-69
2023/04/05 06:18:19;;;;;;;11.63;7.43;;;;;;;0.71;73.51;102229.88;4986383;28;20039;-69
2023/04/05 06:20:46;;;;;;;10.55;7.70;;;;;;;0.82;73.21;102230.22;4972105;28;20515;-69
2023/04/05 06:23:13;;;;;;;15.90;7.78;;;;;;;0.96;73.12;102235.88;4990006;28;20932;-69
2023/04/05 06:25:42;;;;;;;10.10;8.20;;;;;;;1.10;72.61;102241.50;4973277;28;20481;-69
2023/04/05 06:28:09;;;;;;;14.30;8.77;;;;;;;1.24;72.05;102229.81;4986488;28;20047;-69
2023/04/05 06:30:36;;;;;;;15.82;9.38;;;;;;;1.36;71.71;102232.78;4970654;28;20039;-69
2023/04/05 06:33:03;;;;;;;13.73;9.20;;;;;;;1.51;71.44;102229.75;4973197;28;20758;-69
2023/04/05 06:35:31;;;;;;;14.13;9.75;;;;;;;1.65;71.05;102226.69;4986397;28;20102;-69
2023/04/05 06:37:58;;;;;;;11.93;9.55;;;;;;;1.78;70.76;102226.19;4986554;28;20274;-69
2023/04/05 06:40:25;;;;;;;14.30;9.95;;;;;;;1.92;70.14;102226.59;4963518;28;20055;-69
2023/04/05 06:42:52;;;;;;;12.35;9.45;;;;;;;2.05;69.79;102229.50;4989243;28;20482;-69
2023/04/05 06:45:22;;;;;;;14.55;9.73;;;;;;;2.16;69.94;102228.97;4971797;28;20106;-69
2023/04/05 06:47:49;;;;;;;17.75;9.75;;;;;;;2.28;69.28;102232.75;4988217;28;20562;-69
2023/04/05 06:50:17;;;;;;;16.00;10.43;;;;;;;2.41;69.53;102232.19;4969531;28;20043;-69
2023/04/05 06:52:43;;;;;;;20.02;10.27;;;;;;;2.56;68.56;102233.44;4971323;28;20057;-69
2023/04/05 06:55:10;;;;;;;14.10;10.00;;;;;;;2.70;68.03;102233.78;4989747;28;20042;-69
2023/04/05 06:57:37;;;;;;;14.90;9.70;;;;;;;2.80;68.16;102227.97;4988129;28;20985;-69
2023/04/05 07:00:12;;;;;;;14.45;9.88;;;;;;;2.92;68.15;102233.47;4985378;28;20047;-69
2023/04/05 07:02:39;;;;;;;17.27;10.27;;;;;;;3.05;66.96;102228.56;4989673;28;20131;-69
2023/04/05 07:05:07;;;;;;;15.95;11.20;;;;;;;3.16;67.25;102231.38;4970589;28;20093;-69
2023/04/05 07:07:43;;;;;;;14.63;10.05;;;;;;;3.30;66.97;102223.88;4989713;28;20095;-69
2023/04/05 07:10:10;;;;;;;12.20;9.10;;;;;;;3.44;66.19;102225.06;4988342;28;20043;-69
2023/04/05 07:12:38;;;;;;;12.27;9.55;;;;;;;3.55;65.48;102231.41;4988465;28;20043;-69
2023/04/05 07:15:06;;;;;;;15.75;9.18;;;;;;;3.67;65.52;102232.47;4989377;28;20153;-69
2023/04/05 07:17:33;;;;;;;12.82;8.32;;;;;;;3.78;65.69;102230.09;4989636;28;20086;-69
2023/04/05 07:20:01;;;;;;;14.20;8.52;;;;;;;3.90;65.29;102227.75;4974107;28;20047;-69
2023/04/05 07:22:28;;;;;;;11.70;8.40;;;;;;;4.03;64.85;102234.94;4971245;28;20043;-69
2023/04/05 07:24:55;;;;;;;12.02;8.57;;;;;;;4.16;64.04;102228.25;4989256;28;20054;-69
2023/04/05 07:27:22;;;;;;;19.13;8.50;;;;;;;4.27;64.13;102233.66;4988508;28;20038;-69
2023/04/05 07:29:49;;;;;;;10.93;7.70;;;;;;;4.39;63.58;102226.88;4970501;28;20089;-69
2023/04/05 07:32:16;;;;;;;13.98;7.93;;;;;;;4.49;63.25;102227.06;4988654;28;20042;-69
2023/04/05 07:34:43;;;;;;;12.02;8.00;;;;;;;4.61;62.83;102228.13;4989268;28;20058;-69
2023/04/05 07:37:10;;;;;;;14.43;8.00;;;;;;;4.71;61.88;102223.94;4972070;28;20035;-69
2023/04/05 07:39:37;;;;;;;12.07;7.65;;;;;;;4.79;62.29;102230.16;4971376;28;20800;-69
2023/04/05 07:42:04;;;;;;;13.73;7.70;;;;;;;4.88;61.88;102219.00;4986290;28;20385;-69
2023/04/05 07:44:31;;;;;;;11.32;7.80;;;;;;;5.01;61.66;102227.91;4970113;28;20533;-69
2023/04/05 07:46:58;;;;;;;12.10;7.07;;;;;;;5.11;60.51;102225.44;4971847;28;20055;-69
2023/04/05 07:49:26;;;;;;;10.52;7.03;;;;;;;5.20;60.42;102223.78;4971557;28;20035;-69
2023/04/05 07:51:55;;;;;;;11.88;7.07;;;;;;;5.33;59.87;102223.13;4971215;28;20049;-69
2023/04/05 07:54:22;;;;;;;15.77;7.10;;;;;;;5.42;60.17;102225.00;4971221;28;20039;-69
2023/04/05 07:56:51;;;;;;;9.95;6.97;;;;;;;5.51;60.08;102222.50;4973933;28;20047;-70
2023/04/05 07:59:18;;;;;;;12.10;6.88;;;;;;;5.60;59.99;102213.84;4980372;28;20589;-69
2023/04/05 08:01:45;;;;;;;9.80;6.75;;;;;;;5.72;59.11;102215.78;4988972;28;20551;-69
2023/04/05 08:04:12;;;;;;;9.00;6.28;;;;;;;5.78;59.04;102218.44;4989078;28;20049;-70
2023/04/05 08:06:39;;;;;;;15.38;6.63;;;;;;;5.89;58.16;102224.69;4971219;28;20039;-70
2023/04/05 08:09:07;;;;;;;9.95;5.82;;;;;;;6.02;56.88;102225.72;4970908;28;20050;-70
2023/04/05 08:11:34;;;;;;;9.05;6.15;;;;;;;6.14;56.76;102214.53;4967953;28;20035;-69
2023/04/05 08:14:01;;;;;;;10.40;5.75;;;;;;;6.24;56.91;102210.25;4984072;28;20516;-70
2023/04/05 08:16:29;;;;;;;9.63;5.93;;;;;;;6.40;56.26;102213.03;4986996;28;20043;-70
2023/04/05 08:18:56;;;;;;;13.18;6.57;;;;;;;6.49;56.22;102213.09;4969055;28;20035;-70
2023/04/05 08:21:23;;;;;;;15.07;6.03;;;;;;;6.63;56.76;102214.06;4970849;28;20077;-70
2023/04/05 08:23:50;;;;;;;8.77;5.63;;;;;;;6.81;54.13;102213.34;4970521;28;20064;-70
2023/04/05 08:26:17;;;;;;;7.55;4.90;;;;;;;6.89;54.30;102213.41;4989100;28;20062;-70
2023/04/05 08:28:44;;;;;;;8.45;5.05;;;;;;;6.98;53.78;102216.09;4984803;28;20102;-69
2023/04/05 08:31:11;;;;;;;8.48;4.63;;;;;;;7.10;51.94;102214.41;4984626;28;20519;-70
2023/04/05 08:33:39;;;;;;;9.35;6.00;;;;;;;7.19;51.86;102211.84;4988817;28;20165;-69
2023/04/05 08:36:09;;;;;;;9.70;4.75;;;;;;;7.31;50.44;102213.66;4986425;28;20043;-69
2023/04/05 08:38:36;;;;;;;8.07;4.60;;;;;;;7.40;50.41;102211.06;4986611;28;20113;-69
2023/04/05 08:41:17;;;;;;;8.45;4.78;;;;;;;7.49;49.99;102204.09;4987851;28;20043;-69
2023/04/05 08:44:01;;;;;;;7.35;5.00;;;;;;;7.56;50.23;102204.16;4987193;28;20541;-69
2023/04/05 08:46:34;;;;;;;7.70;4.25;;;;;;;7.68;49.73;102211.19;4987391;28;20043;-69
2023/04/05 08:49:07;;;;;;;16.75;5.03;;;;;;;7.78;49.30;102212.09;4984831;28;20039;-69
2023/04/05 08:51:41;;;;;;;17.53;4.77;;;;;;;7.88;49.54;102215.66;4970342;28;20043;-70
2023/04/05 08:54:08;;;;;;;7.35;4.80;;;;;;;8.03;48.96;102212.19;4987840;28;20043;-69
2023/04/05 08:56:36;;;;;;;6.65;5.07;;;;;;;8.13;48.93;102206.06;4968351;28;20050;-69
2023/04/05 08:59:09;;;;;;;9.45;4.70;;;;;;;8.26;48.19;102211.31;4971511;28;20138;-69
2023/04/05 09:01:44;;;;;;;7.60;4.78;;;;;;;8.34;47.79;102210.47;4980735;28;20061;-69
2023/04/05 09:04:15;;;;;;;;;;;;;;;8.37;47.15;102206.97;4986015;28;20122;-69
2023/04/05 09:06:45;;;;;;;9.10;4.95;;;;;;;8.42;46.35;102202.59;4969518;28;19926;-69
2023/04/05 09:09:13;;;;;;;7.85;4.75;;;;;;;8.46;45.65;102200.84;4937923;28;20057;-69
2023/04/05 09:11:43;;;;;;;7.72;4.40;;;;;;;8.52;43.85;102203.50;4986239;28;20039;-69
2023/04/05 09:14:10;;;;;;;7.10;4.95;;;;;;;8.54;44.07;102210.53;4986340;28;20050;-69
2023/04/05 09:16:39;;;;;;;7.93;5.20;;;;;;;8.61;45.68;102200.88;4987131;28;20051;-69
2023/04/05 09:19:09;;;;;;;8.10;5.00;;;;;;;8.72;44.82;102205.25;4969661;28;20087;-69
2023/04/05 09:22:07;;;;;;;6.90;4.78;;;;;;;8.78;46.17;102200.00;4969003;28;20117;-69
2023/04/05 09:24:42;;;;;;;10.63;4.93;;;;;;;8.85;46.07;102207.84;4988028;28;20046;-70
2023/04/05 09:27:17;;;;;;;7.45;5.20;;;;;;;8.98;44.86;102202.56;4986737;28;20819;-69
2023/04/05 09:29:51;;;;;;;7.72;5.20;;;;;;;9.01;44.01;102195.56;4968708;28;20537;-69
2023/04/05 09:32:20;;;;;;;7.90;4.32;;;;;;;9.02;44.09;102199.06;4984690;28;20878;-69
2023/04/05 09:34:47;;;;;;;7.20;4.70;;;;;;;9.05;44.39;102192.91;4987166;28;20039;-69
2023/04/05 09:37:34;;;;;;;5.72;3.92;;;;;;;9.09;43.63;102194.69;4985269;28;20103;-69
2023/04/05 09:40:05;;;;;;;14.48;4.55;;;;;;;9.15;43.27;102192.03;4968614;28;20042;-69
2023/04/05 09:42:44;;;;;;;7.72;3.67;;;;;;;9.25;41.75;102188.47;4987441;28;20070;-69
2023/04/05 09:45:13;;;;;;;5.35;3.72;;;;;;;9.24;42.07;102180.59;4969247;28;20050;-69
2023/04/05 09:47:56;;;;;;;7.43;4.60;;;;;;;9.20;42.77;102185.00;4985068;28;20556;-69
2023/04/05 09:50:24;;;;;;;7.85;3.97;;;;;;;9.19;43.65;102188.50;4969197;28;20452;-69
2023/04/05 09:53:15;;;;;;;7.60;3.90;;;;;;;9.32;41.99;102176.19;4969460;28;20354;-69
2023/04/05 09:55:44;;;;;;;7.18;3.65;;;;;;;9.40;40.35;102176.16;4969675;28;20039;-69
2023/04/05 09:58:19;;;;;;;8.13;3.90;;;;;;;9.41;40.61;102175.28;4984876;28;20796;-69
2023/04/05 10:00:52;;;;;;;8.20;4.18;;;;;;;9.47;42.57;102176.09;4968121;28;20112;-69
2023/04/05 10:03:29;;;;;;;7.07;4.00;;;;;;;9.58;41.70;102173.44;4969719;28;20053;-70
2023/04/05 10:05:56;;;;;;;8.18;4.38;;;;;;;9.73;40.14;102176.88;4987650;28;20043;-69
2023/04/05 10:08:24;;;;;;;8.57;4.47;;;;;;;9.76;38.76;102169.84;4957550;28;20051;-69
2023/04/05 10:10:53;;;;;;;9.05;4.60;;;;;;;9.72;40.36;102164.56;4985991;28;20051;-69
2023/04/05 10:13:21;;;;;;;6.88;4.05;;;;;;;9.75;40.65;102167.19;4987382;28;20114;-69
2023/04/05 10:15:51;;;;;;;35.38;6.15;;;;;;;9.74;41.62;102161.06;4968530;28;20130;-69
2023/04/05 10:18:27;;;;;;;8.00;4.22;;;;;;;9.89;40.16;102167.13;4985424;28;20050;-69
2023/04/05 10:20:59;;;;;;;20.35;5.70;;;;;;;9.95;41.01;102153.91;4969459;28;20039;-69
2023/04/05 10:23:34;;;;;;;6.75;4.07;;;;;;;10.02;41.15;102153.00;4987291;28;20093;-69
2023/04/05 10:26:35;;;;;;;7.88;4.68;;;;;;;10.16;41.71;102152.88;4986821;28;20043;-69
2023/04/05 10:29:24;;;;;;;6.95;4.15;;;;;;;10.23;40.61;102145.81;4986002;28;20114;-69
2023/04/05 10:32:07;;;;;;;7.10;4.28;;;;;;;10.33;39.81;102149.22;4969240;28;20093;-69
2023/04/05 10:35:03;;;;;;;9.68;4.05;;;;;;;10.35;39.50;102144.81;4967989;28;20043;-69
2023/04/05 10:38:27;;;;;;;7.72;4.40;;;;;;;10.39;39.24;102136.91;4986482;28;20579;-69
2023/04/05 10:41:13;;;;;;;5.50;3.88;;;;;;;10.38;37.85;102139.56;4986680;28;20042;-69
2023/04/05 10:43:42;;;;;;;6.88;3.65;;;;;;;10.42;39.14;102136.03;4972375;28;20060;-69
2023/04/05 10:46:10;;;;;;;7.32;4.30;;;;;;;10.48;39.26;102125.41;4987385;28;20134;-69
2023/04/05 10:49:04;;;;;;;8.52;4.15;;;;;;;10.57;37.91;102132.38;4988292;28;20031;-70
2023/04/05 10:51:33;;;;;;;12.77;4.90;;;;;;;10.60;38.34;102131.47;4990002;28;20042;-70
2023/04/05 10:54:01;;;;;;;7.20;3.80;;;;;;;10.69;36.88;102118.19;4988093;28;20034;-70
2023/04/05 10:56:30;;;;;;;5.45;3.35;;;;;;;10.61;36.95;102120.03;4989117;28;20782;-70
2023/04/05 10:59:00;;;;;;;5.63;3.20;;;;;;;10.57;36.07;102124.47;4988177;28;20066;-70
2023/04/05 11:01:27;;;;;;;5.03;3.33;;;;;;;10.50;35.58;102113.09;4954312;28;20086;-70
2023/04/05 11:03:55;;;;;;;5.50;3.53;;;;;;;10.47;34.93;102115.75;4987809;28;20039;-70
2023/04/05 11:06:31;;;;;;;9.57;3.88;;;;;;;10.47;36.00;102113.13;4982245;28;20122;-70
2023/04/05 11:09:20;;;;;;;5.07;3.33;;;;;;;10.62;36.38;102113.88;4963113;28;20452;-70
2023/04/05 11:11:50;;;;;;;7.75;3.80;;;;;;;10.80;37.49;102116.31;4969992;28;20563;-70
2023/04/05 11:14:25;;;;;;;6.30;4.45;;;;;;;11.01;36.37;102111.69;4952870;28;20048;-69
2023/04/05 11:16:55;;;;;;;8.75;3.80;;;;;;;11.03;36.33;102110.75;4972086;28;20122;-70
2023/04/05 11:19:41;;;;;;;9.48;4.20;;;;;;;11.05;36.78;102102.81;4988101;28;20066;-69
2023/04/05 11:22:23;;;;;;;6.45;3.67;;;;;;;11.14;37.12;102100.06;4972498;28;20414;-70
2023/04/05 11:24:56;;;;;;;6.38;3.97;;;;;;;11.27;37.22;102103.44;4987246;28;20050;-69
2023/04/05 11:27:32;;;;;;;6.20;4.10;;;;;;;11.42;36.25;102093.53;4988290;28;20454;-69
2023/04/05 11:30:01;;;;;;;6.22;3.85;;;;;;;11.44;37.40;102092.66;4987140;28;20739;-69
2023/04/05 11:32:43;;;;;;;11.52;4.10;;;;;;;11.56;37.31;102091.59;4988711;28;20530;-69
2023/04/05 11:35:22;;;;;;;6.35;4.00;;;;;;;11.68;36.92;102098.44;4988719;28;20577;-70
2023/04/05 11:38:01;;;;;;;5.07;3.50;;;;;;;11.80;33.95;102093.00;4971934;28;20047;-70
2023/04/05 11:40:34;;;;;;;6.45;4.25;;;;;;;11.57;34.55;102095.09;4988396;28;20624;-70
2023/04/05 11:43:09;;;;;;;10.55;4.00;;;;;;;11.40;34.24;102088.28;4988347;28;20039;-69
2023/04/05 11:45:38;;;;;;;30.70;4.85;;;;;;;11.27;35.92;102076.16;4970374;28;20039;-69
2023/04/05 11:48:11;;;;;;;9.57;4.15;;;;;;;11.40;37.41;102082.13;4970281;28;20054;-69